Time;durP1;ratioP1;P1;durP2;ratioP2;P2;SDS_P1;SDS_P2;PMS_P1;PMS_P2;Temp;Humidity;BMP_temperature;BMP_pressure;BME280_temperature;BME280_humidity;BME280_pressure;Samples;Min_cycle;Max_cycle;Signal;HPM_P1;HPM_P2
2021/09/23 00:00:24;;;;;;;;;;;;;;;19.70;56.05;102063.28;5073419;28;19924;-61
2021/09/23 00:05:23;;;;;;;;;;;;;;;19.67;55.90;102060.84;5080156;28;19923;-61
2021/09/23 00:07:50;;;;;;;;;;;;;;;19.64;55.99;102056.59;5093702;28;19927;-63
2021/09/23 00:10:20;;;;;;;;;;;;;;;19.61;56.54;102059.47;5093582;28;19924;-61
2021/09/23 00:12:47;;;;;;;;;;;;;;;19.63;56.01;102064.69;5084164;28;19924;-62
2021/09/23 00:15:15;;;;;;;;;;;;;;;19.60;56.06;102063.09;5073346;28;20300;-61
2021/09/23 00:17:47;;;;;;;;;;;;;;;19.58;56.42;102059.72;5073144;28;19933;-61
2021/09/23 00:20:17;;;;;;;;;;;;;;;19.60;56.38;102070.25;5072996;28;19986;-62
2021/09/23 00:22:44;;;;;;;;;;;;;;;19.59;56.36;102066.72;5073367;28;19924;-61
2021/09/23 00:25:11;;;;;;;;;;;;;;;19.58;56.43;102073.03;5073057;28;20434;-61
2021/09/23 00:27:38;;;;;;;;;;;;;;;19.54;56.39;102071.53;5072873;28;19929;-61
2021/09/23 00:30:05;;;;;;;;;;;;;;;19.53;56.42;102072.53;5072498;28;20373;-61
2021/09/23 00:32:31;;;;;;;;;;;;;;;19.53;56.13;102078.69;5072838;28;20359;-73
2021/09/23 00:34:58;;;;;;;;;;;;;;;19.52;56.57;102071.66;5072887;28;19924;-61
2021/09/23 00:37:24;;;;;;;;;;;;;;;19.51;56.41;102077.09;5073190;28;19924;-61
2021/09/23 00:39:51;;;;;;;;;;;;;;;19.48;56.50;102078.19;5072984;28;19974;-68
2021/09/23 00:42:17;;;;;;;;;;;;;;;19.47;56.30;102072.97;5072875;28;19999;-62
2021/09/23 00:44:55;;;;;;;;;;;;;;;19.44;56.35;102075.84;5072854;28;20404;-62
2021/09/23 00:47:22;;;;;;;;;;;;;;;19.42;56.27;102076.78;5072686;28;19936;-60
2021/09/23 00:49:49;;;;;;;;;;;;;;;19.43;56.58;102083.00;5072869;28;19986;-61
2021/09/23 00:52:15;;;;;;;;;;;;;;;19.41;56.66;102072.47;5072856;28;20125;-61
2021/09/23 00:54:43;;;;;;;;;;;;;;;19.39;56.66;102079.69;5072554;28;19928;-61
2021/09/23 00:57:09;;;;;;;;;;;;;;;19.39;56.41;102085.03;5072679;28;19924;-61
2021/09/23 00:59:36;;;;;;;;;;;;;;;19.34;56.64;102070.38;5072811;28;19931;-62
2021/09/23 01:02:02;;;;;;;;;;;;;;;19.34;56.45;102070.38;5072718;28;20288;-61
2021/09/23 01:04:29;;;;;;;;;;;;;;;19.32;56.78;102074.94;5072630;28;19954;-61
2021/09/23 01:06:55;;;;;;;;;;;;;;;19.30;56.79;102074.19;5072717;28;19925;-61
2021/09/23 01:09:22;;;;;;;;;;;;;;;19.27;56.50;102077.09;5072577;28;19970;-62
2021/09/23 01:11:48;;;;;;;;;;;;;;;19.24;56.86;102072.84;5072521;28;20375;-61
2021/09/23 01:14:15;;;;;;;;;;;;;;;19.23;56.80;102071.13;5072692;28;20379;-62
2021/09/23 01:16:41;;;;;;;;;;;;;;;19.23;56.92;102073.78;5073046;28;19924;-61
2021/09/23 01:19:08;;;;;;;;;;;;;;;19.21;56.91;102067.72;5076626;28;20015;-63
2021/09/23 01:21:34;;;;;;;;;;;;;;;19.20;56.94;102060.72;5076523;28;19925;-61
2021/09/23 01:24:01;;;;;;;;;;;;;;;19.20;56.95;102064.22;5076513;28;19971;-61
2021/09/23 01:26:29;;;;;;;;;;;;;;;19.17;56.78;102059.13;5076484;28;20334;-61
2021/09/23 01:28:56;;;;;;;;;;;;;;;19.16;56.96;102049.44;5076500;28;19924;-61
2021/09/23 01:31:23;;;;;;;;;;;;;;;19.14;57.07;102055.84;5076370;28;19947;-60
2021/09/23 01:33:50;;;;;;;;;;;;;;;19.16;57.07;102049.44;5076528;28;19932;-61
2021/09/23 01:36:16;;;;;;;;;;;;;;;19.14;56.66;102048.69;5076128;28;19932;-61
2021/09/23 01:38:43;;;;;;;;;;;;;;;19.09;56.76;102042.84;5076044;28;19972;-62
2021/09/23 01:41:10;;;;;;;;;;;;;;;19.11;57.02;102048.06;5076078;28;20442;-61
2021/09/23 01:43:37;;;;;;;;;;;;;;;19.07;57.03;102045.63;5075983;28;19924;-69
2021/09/23 01:46:03;;;;;;;;;;;;;;;19.08;56.95;102044.66;5076282;28;19994;-61
2021/09/23 01:48:30;;;;;;;;;;;;;;;19.03;57.06;102041.50;5075926;28;19924;-61
2021/09/23 01:50:56;;;;;;;;;;;;;;;18.98;57.22;102040.09;5075935;28;19970;-61
2021/09/23 01:53:23;;;;;;;;;;;;;;;18.93;57.38;102038.63;5075817;28;20406;-61
2021/09/23 01:55:49;;;;;;;;;;;;;;;18.96;57.18;102031.38;5075700;28;19931;-61
2021/09/23 01:58:16;;;;;;;;;;;;;;;18.96;56.90;102029.59;5091430;28;19924;-62
2021/09/23 02:00:42;;;;;;;;;;;;;;;18.96;57.23;102029.59;5075650;28;19932;-60
2021/09/23 02:03:09;;;;;;;;;;;;;;;18.94;57.14;102034.16;5075710;28;19952;-60
2021/09/23 02:05:37;;;;;;;;;;;;;;;18.93;57.03;102037.78;5075367;28;19931;-61
2021/09/23 02:08:03;;;;;;;;;;;;;;;18.90;57.25;102038.00;5075876;28;19928;-61
2021/09/23 02:10:30;;;;;;;;;;;;;;;18.86;57.50;102033.84;5075467;28;19925;-61
2021/09/23 02:12:56;;;;;;;;;;;;;;;18.82;57.24;102033.19;5075589;28;19970;-61
2021/09/23 02:15:23;;;;;;;;;;;;;;;18.82;57.44;102022.56;5075485;28;19924;-61
2021/09/23 02:17:49;;;;;;;;;;;;;;;18.80;57.65;102021.81;5075532;28;20022;-61
2021/09/23 02:20:16;;;;;;;;;;;;;;;18.81;57.27;102022.69;5075505;28;19928;-61
2021/09/23 02:22:43;;;;;;;;;;;;;;;18.74;57.26;102020.44;5075432;28;19928;-61
2021/09/23 02:25:09;;;;;;;;;;;;;;;18.72;57.73;102025.03;5075464;28;19924;-61
2021/09/23 02:27:36;;;;;;;;;;;;;;;18.70;57.43;102018.97;5074746;28;19929;-61
2021/09/23 02:30:03;;;;;;;;;;;;;;;18.69;57.35;102019.06;5075305;28;19925;-62
2021/09/23 02:32:30;;;;;;;;;;;;;;;18.69;57.74;102021.72;5075101;28;19928;-61
2021/09/23 02:34:56;;;;;;;;;;;;;;;18.65;57.47;102017.59;5075274;28;19925;-61
2021/09/23 02:37:23;;;;;;;;;;;;;;;18.66;57.37;102022.78;5074916;28;19925;-63
2021/09/23 02:39:50;;;;;;;;;;;;;;;18.66;57.66;102020.13;5075315;28;19924;-62
2021/09/23 02:42:17;;;;;;;;;;;;;;;18.65;57.31;102022.91;5075199;28;19931;-63
2021/09/23 02:44:44;;;;;;;;;;;;;;;18.64;57.52;102023.84;5075097;28;19928;-61
2021/09/23 02:47:10;;;;;;;;;;;;;;;18.62;57.43;102015.16;5074931;28;19931;-62
2021/09/23 02:49:37;;;;;;;;;;;;;;;18.59;57.43;102021.53;5074864;28;19924;-61
2021/09/23 02:52:03;;;;;;;;;;;;;;;18.56;57.52;102011.97;5074958;28;20034;-61
2021/09/23 02:54:30;;;;;;;;;;;;;;;18.53;57.88;102024.63;5074991;28;20339;-61
2021/09/23 02:56:56;;;;;;;;;;;;;;;18.52;57.79;102022.94;5074754;28;19931;-61
2021/09/23 02:59:23;;;;;;;;;;;;;;;18.50;57.99;102028.34;5074726;28;19924;-61
2021/09/23 03:01:49;;;;;;;;;;;;;;;18.50;57.92;102027.47;5073776;28;19970;-61
2021/09/23 03:04:16;;;;;;;;;;;;;;;18.46;57.77;102029.50;5085739;28;19947;-61
2021/09/23 03:06:43;;;;;;;;;;;;;;;18.42;57.88;102030.69;5091310;28;20407;-61
2021/09/23 03:09:09;;;;;;;;;;;;;;;18.36;57.91;102021.34;5091467;28;19924;-61
2021/09/23 03:11:36;;;;;;;;;;;;;;;18.32;58.27;102029.63;5091146;28;19932;-61
2021/09/23 03:14:02;;;;;;;;;;;;;;;18.30;58.28;102031.53;5091027;28;20053;-60
2021/09/23 03:16:29;;;;;;;;;;;;;;;18.28;58.11;102028.97;5091239;28;19924;-61
2021/09/23 03:18:56;;;;;;;;;;;;;;;18.27;58.02;102029.94;5091193;28;19979;-61
2021/09/23 03:21:22;;;;;;;;;;;;;;;18.26;58.21;102023.78;5078109;28;20326;-61
2021/09/23 03:23:49;;;;;;;;;;;;;;;18.28;58.17;102028.97;5070946;28;19928;-61
2021/09/23 03:26:15;;;;;;;;;;;;;;;18.23;58.40;102020.47;5070814;28;19924;-61
2021/09/23 03:28:42;;;;;;;;;;;;;;;18.19;58.62;102032.28;5070488;28;19948;-61
2021/09/23 03:31:08;;;;;;;;;;;;;;;18.14;58.46;102023.78;5070697;28;19924;-61
2021/09/23 03:33:35;;;;;;;;;;;;;;;18.10;58.52;102026.63;5070193;28;19947;-61
2021/09/23 03:36:02;;;;;;;;;;;;;;;18.08;58.85;102036.53;5071282;28;19928;-61
2021/09/23 03:38:28;;;;;;;;;;;;;;;18.07;58.53;102032.16;5090704;28;19963;-61
2021/09/23 03:40:55;;;;;;;;;;;;;;;18.04;58.84;102036.81;5089816;28;20387;-61
2021/09/23 03:43:22;;;;;;;;;;;;;;;18.01;58.67;102035.22;5078526;28;19924;-61
2021/09/23 03:45:49;;;;;;;;;;;;;;;17.99;58.62;102028.31;5070436;28;19932;-61
2021/09/23 03:48:16;;;;;;;;;;;;;;;17.97;58.93;102025.78;5070494;28;19924;-61
2021/09/23 03:50:43;;;;;;;;;;;;;;;17.96;58.77;102024.06;5076296;28;19928;-62
2021/09/23 03:53:09;;;;;;;;;;;;;;;17.93;59.15;102019.81;5088610;28;19924;-61
2021/09/23 03:55:36;;;;;;;;;;;;;;;17.92;58.95;102031.34;5069804;28;19925;-61
2021/09/23 03:58:03;;;;;;;;;;;;;;;17.92;58.72;102028.69;5069834;28;19933;-61
2021/09/23 04:00:29;;;;;;;;;;;;;;;17.91;59.10;102021.69;5069976;28;19924;-63
2021/09/23 04:02:56;;;;;;;;;;;;;;;17.92;59.23;102025.19;5070014;28;19925;-61
2021/09/23 04:05:23;;;;;;;;;;;;;;;17.90;59.10;102021.78;5070001;28;19924;-63
2021/09/23 04:07:49;;;;;;;;;;;;;;;17.97;58.86;102023.13;5069825;28;19951;-61
2021/09/23 04:10:16;;;;;;;;;;;;;;;17.97;58.98;102036.41;5083142;28;19924;-63
2021/09/23 04:12:42;;;;;;;;;;;;;;;17.98;58.88;102030.13;5089871;28;19924;-61
2021/09/23 04:15:09;;;;;;;;;;;;;;;17.99;59.02;102030.97;5089963;28;19931;-63
2021/09/23 04:17:35;;;;;;;;;;;;;;;17.97;59.07;102041.72;5089760;28;19924;-61
2021/09/23 04:20:02;;;;;;;;;;;;;;;17.89;59.48;102039.53;5084091;28;19981;-61
2021/09/23 04:22:29;;;;;;;;;;;;;;;17.83;59.22;102037.28;5069756;28;19994;-61
2021/09/23 04:24:56;;;;;;;;;;;;;;;17.79;59.28;102038.44;5069827;28;19982;-61
2021/09/23 04:27:22;;;;;;;;;;;;;;;17.79;59.58;102035.78;5069475;28;19931;-61
2021/09/23 04:29:49;;;;;;;;;;;;;;;17.77;59.29;102040.34;5069561;28;19928;-60
2021/09/23 04:32:15;;;;;;;;;;;;;;;17.75;59.62;102042.25;5069600;28;19924;-61
2021/09/23 04:34:42;;;;;;;;;;;;;;;17.78;59.22;102031.44;5069386;28;19931;-61
2021/09/23 04:37:09;;;;;;;;;;;;;;;17.78;59.75;102037.59;5069608;28;20335;-61
2021/09/23 04:39:34;;;;;;;;;;;;;;;17.78;59.40;102034.94;5069226;28;19946;-62
2021/09/23 04:42:00;;;;;;;;;;;;;;;17.79;59.54;102041.09;5069504;28;19924;-63
2021/09/23 04:44:27;;;;;;;;;;;;;;;17.76;59.48;102039.50;5069382;28;20387;-63
2021/09/23 04:46:54;;;;;;;;;;;;;;;17.72;59.38;102037.16;5069656;28;19931;-63
2021/09/23 04:49:21;;;;;;;;;;;;;;;17.68;59.47;102044.47;5069241;28;19924;-62
2021/09/23 04:51:48;;;;;;;;;;;;;;;17.66;59.59;102035.75;5083195;28;20388;-61
2021/09/23 04:54:14;;;;;;;;;;;;;;;17.62;60.00;102039.56;5073630;28;19925;-61
2021/09/23 04:56:41;;;;;;;;;;;;;;;17.60;59.49;102030.84;5071660;28;19932;-61
2021/09/23 04:59:07;;;;;;;;;;;;;;;17.61;59.90;102032.53;5088983;28;19978;-63
2021/09/23 05:01:34;;;;;;;;;;;;;;;17.63;59.95;102038.59;5089093;28;19932;-60
2021/09/23 05:04:01;;;;;;;;;;;;;;;17.63;59.58;102034.13;5088353;28;19931;-60
2021/09/23 05:06:28;;;;;;;;;;;;;;;17.65;59.63;102042.03;5089312;28;19924;-60
2021/09/23 05:08:54;;;;;;;;;;;;;;;17.66;59.72;102040.22;5078969;28;19932;-61
2021/09/23 05:11:21;;;;;;;;;;;;;;;17.69;59.73;102043.50;5068718;28;19977;-61
2021/09/23 05:13:51;;;;;;;;;;;;;;;17.70;59.66;102047.88;5069324;28;20288;-60
2021/09/23 05:16:24;;;;;;;;;;;;;;;17.67;59.72;102052.53;5068815;28;19932;-60
2021/09/23 05:18:58;;;;;;;;;;;;;;;17.62;60.21;102050.16;5069058;28;19968;-61
2021/09/23 05:21:24;;;;;;;;;;;;;;;17.60;60.08;102054.75;5069352;28;19964;-60
2021/09/23 05:23:51;;;;;;;;;;;;;;;17.60;59.68;102062.72;5069190;28;19947;-61
2021/09/23 05:26:17;;;;;;;;;;;;;;;17.63;59.86;102065.16;5069140;28;19924;-61
2021/09/23 05:28:44;;;;;;;;;;;;;;;17.63;59.77;102062.50;5068971;28;19994;-62
2021/09/23 05:31:10;;;;;;;;;;;;;;;17.63;59.88;102071.28;5069062;28;19928;-61
2021/09/23 05:33:40;;;;;;;;;;;;;;;17.62;59.99;102072.28;5080336;28;19928;-64
2021/09/23 05:36:06;;;;;;;;;;;;;;;17.63;59.91;102071.28;5069380;28;19935;-61
2021/09/23 05:38:33;;;;;;;;;;;;;;;17.65;60.01;102076.53;5069942;28;19976;-61
2021/09/23 05:41:01;;;;;;;;;;;;;;;17.66;59.76;102080.91;5088236;28;19950;-69
2021/09/23 05:43:28;;;;;;;;;;;;;;;17.68;60.00;102078.13;5088149;28;19924;-60
2021/09/23 05:45:55;;;;;;;;;;;;;;;17.68;60.05;102075.47;5086568;28;19924;-61
2021/09/23 05:48:21;;;;;;;;;;;;;;;17.70;60.26;102076.22;5088916;28;20294;-60
2021/09/23 05:50:48;;;;;;;;;;;;;;;17.73;60.04;102082.19;5088932;28;19967;-61
2021/09/23 05:53:14;;;;;;;;;;;;;;;17.74;60.43;102077.72;5087464;28;19927;-60
2021/09/23 05:55:41;;;;;;;;;;;;;;;17.76;60.35;102081.13;5086463;28;19932;-60
2021/09/23 05:58:07;;;;;;;;;;;;;;;17.76;60.41;102084.66;5088143;28;20065;-60
2021/09/23 06:00:34;;;;;;;;;;;;;;;17.78;60.41;102093.34;5088437;28;19924;-60
2021/09/23 06:03:01;;;;;;;;;;;;;;;17.79;60.25;102087.09;5088663;28;20430;-60
2021/09/23 06:05:28;;;;;;;;;;;;;;;17.83;60.11;102085.09;5091902;28;19957;-60
2021/09/23 06:07:54;;;;;;;;;;;;;;;17.86;60.40;102086.69;5091940;28;19993;-60
2021/09/23 06:10:21;;;;;;;;;;;;;;;17.88;60.80;102080.31;5091904;28;19928;-68
2021/09/23 06:12:47;;;;;;;;;;;;;;;17.92;60.68;102083.63;5091753;28;19931;-60
2021/09/23 06:15:14;;;;;;;;;;;;;;;17.98;60.58;102083.25;5091110;28;19924;-60
2021/09/23 06:17:43;;;;;;;;;;;;;;;18.02;60.67;102089.22;5090646;28;19935;-60
2021/09/23 06:20:10;;;;;;;;;;;;;;;18.04;60.49;102090.81;5087515;28;19925;-58
2021/09/23 06:22:37;;;;;;;;;;;;;;;17.97;60.82;102084.19;5084037;28;19928;-61
2021/09/23 06:25:04;;;;;;;;;;;;;;;17.95;60.88;102086.97;5078839;28;19931;-58
2021/09/23 06:27:30;;;;;;;;;;;;;;;18.08;60.95;102087.00;5091637;28;20295;-62
2021/09/23 06:29:57;;;;;;;;;;;;;;;18.19;60.52;102080.09;5091962;28;20376;-65
2021/09/23 06:32:23;;;;;;;;;;;;;;;18.27;60.32;102083.94;5091764;28;19978;-60
2021/09/23 06:34:50;;;;;;;;;;;;;;;18.37;60.46;102083.31;5091777;28;20022;-61
2021/09/23 06:37:37;;;;;;;;;;;;;;;18.49;60.22;102084.28;5080462;28;19974;-60
2021/09/23 06:40:07;;;;;;;;;;;;;;;18.62;60.17;102084.28;5080730;28;19941;-59
2021/09/23 06:42:34;;;;;;;;;;;;;;;18.75;59.87;102087.78;5085990;28;19924;-60
2021/09/23 06:45:00;;;;;;;;;;;;;;;18.92;59.28;102074.16;5081365;28;19928;-62
2021/09/23 06:47:27;;;;;;;;;;;;;;;19.09;58.56;102075.63;5091230;28;19931;-60
2021/09/23 06:49:54;;;;;;;;;;;;;;;19.21;58.28;102065.91;5090207;28;19924;-60
2021/09/23 06:52:21;;;;;;;;;;;;;;;19.34;58.06;102067.69;5090653;28;19924;-62
2021/09/23 06:54:48;;;;;;;;;;;;;;;19.47;57.77;102064.97;5090508;28;19924;-62
2021/09/23 06:57:15;;;;;;;;;;;;;;;19.62;57.31;102062.97;5087858;28;19975;-62
2021/09/23 06:59:41;;;;;;;;;;;;;;;19.81;57.05;102054.50;5090239;28;20380;-62
2021/09/23 07:02:08;;;;;;;;;;;;;;;19.86;57.01;102052.38;5090702;28;19935;-60
2021/09/23 07:04:35;;;;;;;;;;;;;;;20.00;56.75;102057.47;5090904;28;19930;-61
2021/09/23 07:07:01;;;;;;;;;;;;;;;20.15;56.34;102050.13;5090242;28;19924;-60
2021/09/23 07:09:28;;;;;;;;;;;;;;;20.32;55.81;102048.81;5090696;28;20326;-60
2021/09/23 07:11:56;;;;;;;;;;;;;;;20.35;55.87;102050.41;5090236;28;19924;-60
2021/09/23 07:14:22;;;;;;;;;;;;;;;20.51;55.67;102048.25;5086358;28;20312;-60
2021/09/23 07:16:49;;;;;;;;;;;;;;;20.63;55.21;102048.25;5090600;28;19931;-60
2021/09/23 07:19:15;;;;;;;;;;;;;;;20.80;55.29;102049.63;5089309;28;20037;-61
2021/09/23 07:21:53;;;;;;;;;;;;;;;20.88;54.78;102053.34;5087368;28;19975;-60
2021/09/23 07:24:19;;;;;;;;;;;;;;;21.00;54.61;102051.53;5069675;28;19994;-60
2021/09/23 07:26:46;;;;;;;;;;;;;;;21.14;54.20;102054.91;5070231;28;19928;-60
2021/09/23 07:29:15;;;;;;;;;;;;;;;21.28;54.07;102048.44;5069881;28;19924;-60
2021/09/23 07:31:44;;;;;;;;;;;;;;;21.39;53.88;102043.06;5070026;28;19924;-60
2021/09/23 07:34:14;;;;;;;;;;;;;;;21.52;53.60;102054.44;5069949;28;20019;-59
2021/09/23 07:36:41;;;;;;;;;;;;;;;21.63;53.15;102061.59;5070147;28;19924;-60
2021/09/23 07:39:08;;;;;;;;;;;;;;;21.74;53.43;102058.03;5069642;28;20339;-60
2021/09/23 07:41:39;;;;;;;;;;;;;;;21.82;53.11;102054.72;5069459;28;19947;-60
2021/09/23 07:44:07;;;;;;;;;;;;;;;21.90;52.94;102070.13;5069955;28;19985;-62
2021/09/23 07:46:33;;;;;;;;;;;;;;;22.04;52.75;102063.59;5069810;28;19928;-62
2021/09/23 07:49:00;;;;;;;;;;;;;;;22.07;52.68;102068.69;5069678;28;20009;-62
2021/09/23 07:51:27;;;;;;;;;;;;;;;22.23;52.35;102068.22;5069524;28;19974;-63
2021/09/23 07:53:53;;;;;;;;;;;;;;;22.15;52.63;102064.38;5070078;28;19932;-62
2021/09/23 07:56:20;;;;;;;;;;;;;;;22.35;51.94;102069.88;5068755;28;20084;-62
2021/09/23 07:58:46;;;;;;;;;;;;;;;22.52;51.80;102068.41;5069343;28;19982;-63
2021/09/23 08:01:13;;;;;;;;;;;;;;;22.54;51.55;102071.81;5069828;28;19935;-62
2021/09/23 08:03:40;;;;;;;;;;;;;;;22.74;51.36;102074.56;5069479;28;20031;-62
2021/09/23 08:06:07;;;;;;;;;;;;;;;22.79;51.26;102069.66;5069503;28;19925;-62
2021/09/23 08:08:34;;;;;;;;;;;;;;;22.90;50.52;102064.22;5069820;28;19925;-60
2021/09/23 08:11:03;;;;;;;;;;;;;;;22.96;50.47;102061.00;5084321;28;19931;-60
2021/09/23 08:13:29;;;;;;;;;;;;;;;23.05;50.19;102066.53;5081281;28;19925;-60
2021/09/23 08:15:56;;;;;;;;;;;;;;;23.22;49.64;102065.88;5089977;28;20376;-60
2021/09/23 08:18:23;;;;;;;;;;;;;;;23.26;49.37;102059.28;5089766;28;19950;-60
2021/09/23 08:20:50;;;;;;;;;;;;;;;23.44;48.85;102054.06;5089859;28;19928;-60
2021/09/23 08:23:18;;;;;;;;;;;;;;;23.59;48.35;102059.00;5089718;28;19928;-60
2021/09/23 08:25:45;;;;;;;;;;;;;;;23.54;48.24;102056.78;5088918;28;20327;-61
2021/09/23 08:28:12;;;;;;;;;;;;;;;23.67;48.11;102056.50;5080684;28;19924;-63
2021/09/23 08:30:41;;;;;;;;;;;;;;;23.78;47.45;102060.84;5081205;28;19941;-60
2021/09/23 08:33:08;;;;;;;;;;;;;;;23.88;47.47;102059.00;5089504;28;19924;-60
2021/09/23 08:35:34;;;;;;;;;;;;;;;24.03;46.73;102055.94;5089312;28;20376;-60
2021/09/23 08:38:01;;;;;;;;;;;;;;;24.17;46.67;102060.81;5089317;28;19924;-60
2021/09/23 08:40:27;;;;;;;;;;;;;;;24.33;46.25;102059.38;5088916;28;19924;-60
2021/09/23 08:42:54;;;;;;;;;;;;;;;24.34;46.21;102053.03;5087639;28;20383;-60
2021/09/23 08:45:22;;;;;;;;;;;;;;;24.38;45.82;102051.72;5069161;28;19990;-60
2021/09/23 08:47:48;;;;;;;;;;;;;;;24.56;45.53;102052.66;5077174;28;19935;-62
2021/09/23 08:50:16;;;;;;;;;;;;;;;24.56;45.51;102052.66;5089097;28;19978;-60
2021/09/23 08:52:43;;;;;;;;;;;;;;;24.61;45.38;102057.59;5087898;28;19935;-60
2021/09/23 08:55:24;;;;;;;;;;;;;;;24.62;45.34;102062.81;5088779;28;19924;-60
2021/09/23 08:57:50;;;;;;;;;;;;;;;24.37;45.92;102053.59;5088969;28;19924;-60
2021/09/23 09:00:17;;;;;;;;;;;;;;;24.68;44.97;102052.50;5088983;28;20334;-60
2021/09/23 09:02:58;;;;;;;;;;;;;;;24.90;44.49;102040.50;5089750;28;19928;-61
2021/09/23 09:05:25;;;;;;;;;;;;;;;25.22;43.67;102045.41;5089054;28;20010;-60
2021/09/23 09:07:58;;;;;;;;;;;;;;;25.38;43.40;102046.59;5089106;28;19928;-60
2021/09/23 09:10:25;;;;;;;;;;;;;;;25.69;42.47;102036.31;5084990;28;19928;-62
2021/09/23 09:12:52;;;;;;;;;;;;;;;25.90;41.92;102027.91;5069432;28;19932;-60
2021/09/23 09:15:27;;;;;;;;;;;;;;;26.10;41.48;102029.59;5068979;28;19925;-62
2021/09/23 09:17:53;;;;;;;;;;;;;;;25.87;41.78;102019.31;5068870;28;19935;-60
2021/09/23 09:20:20;;;;;;;;;;;;;;;26.14;41.41;102018.34;5082573;28;19938;-60
2021/09/23 09:22:46;;;;;;;;;;;;;;;26.40;40.84;102012.09;5085648;28;19928;-60
2021/09/23 09:25:13;;;;;;;;;;;;;;;26.60;40.45;102019.91;5088145;28;20438;-60
2021/09/23 09:27:42;;;;;;;;;;;;;;;26.62;40.61;102016.06;5084907;28;19924;-61
2021/09/23 09:30:08;;;;;;;;;;;;;;;26.19;41.38;102016.00;5068116;28;19938;-60
2021/09/23 09:32:58;;;;;;;;;;;;;;;25.36;42.96;102019.06;5068635;28;19925;-60
2021/09/23 09:35:26;;;;;;;;;;;;;;;25.27;43.16;102020.78;5068755;28;19970;-60
2021/09/23 09:37:54;;;;;;;;;;;;;;;26.17;41.08;102009.97;5069286;28;19932;-61
2021/09/23 09:40:23;;;;;;;;;;;;;;;26.57;40.42;102015.69;5072320;28;20327;-60
2021/09/23 09:42:51;;;;;;;;;;;;;;;26.76;39.77;102006.53;5072397;28;19928;-60
2021/09/23 09:45:21;;;;;;;;;;;;;;;25.68;42.00;102007.72;5090983;28;20372;-60
2021/09/23 09:47:54;;;;;;;;;;;;;;;25.02;43.42;102015.16;5092057;28;19977;-61
2021/09/23 09:50:23;;;;;;;;;;;;;;;24.76;43.82;102007.81;5091349;28;19928;-61
2021/09/23 09:52:50;;;;;;;;;;;;;;;25.56;42.10;102003.59;5092239;28;19928;-61
2021/09/23 09:55:18;;;;;;;;;;;;;;;26.52;39.97;102002.72;5092021;28;19978;-60
2021/09/23 09:57:49;;;;;;;;;;;;;;;26.52;39.90;102000.03;5092440;28;19928;-61
2021/09/23 10:00:21;;;;;;;;;;;;;;;26.06;40.58;101986.84;5091463;28;20391;-61
2021/09/23 10:02:47;;;;;;;;;;;;;;;26.83;39.08;101988.72;5071635;28;20431;-62
2021/09/23 10:05:15;;;;;;;;;;;;;;;27.25;38.38;101986.94;5071696;28;19966;-60
2021/09/23 10:07:49;;;;;;;;;;;;;;;27.51;37.47;101981.41;5071454;28;20335;-61
2021/09/23 10:10:17;;;;;;;;;;;;;;;26.55;39.30;101983.56;5071556;28;19925;-61
2021/09/23 10:12:44;;;;;;;;;;;;;;;26.18;40.00;101989.25;5071675;28;19933;-61
2021/09/23 10:15:13;;;;;;;;;;;;;;;25.86;40.68;101986.19;5071952;28;19931;-61
2021/09/23 10:17:45;;;;;;;;;;;;;;;25.47;41.38;101981.22;5070676;28;20285;-61
2021/09/23 10:20:13;;;;;;;;;;;;;;;25.23;41.83;101984.47;5071676;28;19925;-61
2021/09/23 10:22:40;;;;;;;;;;;;;;;24.93;42.54;101990.03;5071555;28;20373;-61
2021/09/23 10:25:08;;;;;;;;;;;;;;;24.70;42.90;101986.94;5071590;28;20346;-68
2021/09/23 10:30:20;;;;;;;;;;;;;;;24.27;43.77;101983.03;5071219;28;19936;-63
2021/09/23 10:32:47;;;;;;;;;;;;;;;24.24;43.88;101986.84;5071123;28;19970;-60
2021/09/23 10:35:14;;;;;;;;;;;;;;;24.18;43.83;101995.47;5071462;28;19950;-60
2021/09/23 10:37:41;;;;;;;;;;;;;;;24.70;42.74;101986.94;5070847;28;20292;-60
2021/09/23 10:40:09;;;;;;;;;;;;;;;25.38;41.60;101980.28;5071859;28;19979;-60
2021/09/23 10:42:36;;;;;;;;;;;;;;;25.50;41.02;101980.88;5075341;28;20292;-61
2021/09/23 10:45:05;;;;;;;;;;;;;;;25.70;40.56;101975.31;5071356;28;19982;-61
2021/09/23 10:47:32;;;;;;;;;;;;;;;25.15;41.73;101977.16;5070712;28;19924;-61
2021/09/23 10:50:00;;;;;;;;;;;;;;;25.12;41.76;101973.97;5071006;28;20339;-61
2021/09/23 10:52:30;;;;;;;;;;;;;;;24.89;42.08;101974.41;5070878;28;19935;-60
2021/09/23 10:54:57;;;;;;;;;;;;;;;24.46;43.03;101974.88;5070006;28;19924;-60
2021/09/23 10:57:26;;;;;;;;;;;;;;;24.35;43.43;101982.28;5072184;28;20293;-60
2021/09/23 10:59:53;;;;;;;;;;;;;;;24.09;43.81;101982.94;5073249;28;20377;-62
2021/09/23 11:02:19;;;;;;;;;;;;;;;24.13;44.15;101979.81;5068568;28;19931;-59
2021/09/23 11:04:52;;;;;;;;;;;;;;;24.08;44.54;101982.09;5074043;28;20739;-59
2021/09/23 11:07:19;;;;;;;;;;;;;;;23.94;44.29;101975.34;5090301;28;19924;-60
2021/09/23 11:10:03;;;;;;;;;;;;;;;24.35;43.72;101976.91;5084954;28;19966;-59
2021/09/23 11:12:31;;;;;;;;;;;;;;;24.65;43.07;101964.25;5071311;28;19998;-59
2021/09/23 11:14:58;;;;;;;;;;;;;;;25.10;42.03;101956.16;5083373;28;19928;-59
2021/09/23 11:17:26;;;;;;;;;;;;;;;25.53;40.99;101959.06;5085924;28;19928;-60
2021/09/23 11:20:06;;;;;;;;;;;;;;;26.54;39.08;101946.88;5076226;28;19928;-61
2021/09/23 11:22:45;;;;;;;;;;;;;;;27.33;37.40;101949.22;5090345;28;19924;-61
2021/09/23 11:25:16;;;;;;;;;;;;;;;27.93;36.64;101938.22;5090283;28;19970;-69
2021/09/23 11:27:46;;;;;;;;;;;;;;;27.48;37.14;101948.56;5090231;28;19928;-61
2021/09/23 11:30:14;;;;;;;;;;;;;;;27.25;37.47;101945.66;5090267;28;19924;-60
2021/09/23 11:32:47;;;;;;;;;;;;;;;26.68;38.64;101948.09;5088623;28;19928;-60
2021/09/23 11:35:14;;;;;;;;;;;;;;;26.41;39.48;101951.88;5090614;28;19924;-62
2021/09/23 11:37:40;;;;;;;;;;;;;;;26.90;38.58;101945.81;5090186;28;19931;-66
2021/09/23 11:40:08;;;;;;;;;;;;;;;27.49;37.47;101942.16;5090591;28;19924;-61
2021/09/23 11:42:38;;;;;;;;;;;;;;;26.94;38.28;101943.63;5090445;28;19932;-61
2021/09/23 11:45:04;;;;;;;;;;;;;;;26.84;38.61;101933.00;5090239;28;20419;-60
2021/09/23 11:47:31;;;;;;;;;;;;;;;26.52;39.26;101930.03;5088428;28;19928;-64
2021/09/23 11:49:58;;;;;;;;;;;;;;;26.95;38.16;101926.47;5070419;28;20418;-60
2021/09/23 11:52:35;;;;;;;;;;;;;;;27.97;36.38;101918.81;5069713;28;19924;-62
2021/09/23 11:55:03;;;;;;;;;;;;;;;28.54;35.48;101916.88;5069794;28;19928;-61
2021/09/23 11:57:30;;;;;;;;;;;;;;;28.63;35.06;101914.97;5069694;28;20011;-61
2021/09/23 11:59:58;;;;;;;;;;;;;;;28.72;34.88;101913.09;5069801;28;19931;-61
2021/09/23 12:02:25;;;;;;;;;;;;;;;28.41;35.30;101912.06;5087639;28;20241;-64
2021/09/23 12:04:53;;;;;;;;;;;;;;;27.46;36.93;101913.69;5081935;28;19935;-61
2021/09/23 12:07:20;;;;;;;;;;;;;;;26.88;37.96;101916.34;5069185;28;19925;-60
2021/09/23 12:10:02;;;;;;;;;;;;;;;26.64;38.46;101911.75;5069117;28;19975;-61
2021/09/23 12:12:29;;;;;;;;;;;;;;;27.09;37.69;101896.16;5069347;28;19928;-60
2021/09/23 12:14:55;;;;;;;;;;;;;;;26.83;38.03;101897.16;5069143;28;19928;-60
2021/09/23 12:17:22;;;;;;;;;;;;;;;27.03;37.56;101892.28;5068852;28;19928;-60
2021/09/23 12:19:56;;;;;;;;;;;;;;;28.03;35.58;101885.72;5069318;28;19936;-60
2021/09/23 12:22:49;;;;;;;;;;;;;;;28.52;35.00;101875.72;5068918;28;19924;-60
2021/09/23 12:25:16;;;;;;;;;;;;;;;27.63;36.59;101873.19;5068305;28;19935;-61
2021/09/23 12:27:42;;;;;;;;;;;;;;;26.80;38.13;101880.47;5068905;28;20426;-60
2021/09/23 12:30:09;;;;;;;;;;;;;;;26.39;39.13;101883.91;5068984;28;19928;-62
2021/09/23 12:32:37;;;;;;;;;;;;;;;26.13;39.42;101874.09;5069048;28;19970;-62
2021/09/23 12:35:14;;;;;;;;;;;;;;;25.98;39.45;101871.13;5069138;28;19924;-60
2021/09/23 12:37:40;;;;;;;;;;;;;;;25.78;39.86;101869.69;5068900;28;19928;-61
2021/09/23 12:40:07;;;;;;;;;;;;;;;25.64;40.05;101866.56;5069150;28;19924;-61
2021/09/23 12:42:35;;;;;;;;;;;;;;;25.61;40.21;101868.72;5069131;28;19976;-60